createdAt,value
2022-08-11T00:03:25.389Z,2.98
2022-08-11T00:08:35.488Z,2.98
2022-08-11T00:13:42.067Z,2.99
2022-08-11T00:18:49.683Z,2.98
2022-08-11T00:23:56.450Z,2.98
2022-08-11T00:29:03.857Z,2.99
2022-08-11T00:34:11.530Z,2.98
2022-08-11T00:39:18.613Z,2.99
2022-08-11T00:44:26.963Z,2.98
2022-08-11T00:49:34.705Z,2.99
2022-08-11T00:54:42.436Z,2.98
2022-08-11T00:59:50.488Z,2.98
2022-08-11T01:04:58.512Z,2.98
2022-08-11T01:10:05.696Z,2.99
2022-08-11T01:15:14.694Z,2.98
2022-08-11T01:20:22.496Z,2.98
2022-08-11T01:25:30.775Z,2.98
2022-08-11T01:30:37.697Z,2.97
2022-08-11T01:35:44.967Z,2.98
2022-08-11T01:40:52.724Z,2.97
2022-08-11T01:46:01.032Z,2.98
2022-08-11T01:51:08.418Z,2.98
2022-08-11T01:56:16.731Z,2.97
2022-08-11T02:01:26.438Z,2.98
2022-08-11T02:06:35.691Z,2.98
2022-08-11T02:11:42.958Z,2.98
2022-08-11T02:16:50.164Z,2.97
2022-08-11T02:21:57.449Z,2.97
2022-08-11T02:27:05.266Z,2.97
2022-08-11T02:32:13.020Z,2.99
2022-08-11T02:37:21.596Z,2.98
2022-08-11T02:42:28.086Z,2.97
2022-08-11T02:47:35.255Z,2.98
2022-08-11T02:52:42.924Z,2.98
2022-08-11T02:57:50.974Z,2.97
2022-08-11T03:02:58.711Z,2.98
2022-08-11T03:08:06.341Z,2.97
2022-08-11T03:13:14.074Z,2.96
2022-08-11T03:18:22.082Z,2.97
2022-08-11T03:23:29.828Z,2.97
2022-08-11T03:28:36.787Z,2.96
2022-08-11T03:33:45.724Z,2.97
2022-08-11T03:38:52.413Z,2.97
2022-08-11T03:44:00.272Z,2.97
2022-08-11T03:49:06.778Z,2.98
2022-08-11T03:54:13.327Z,2.97
2022-08-11T03:59:21.725Z,2.98
2022-08-11T04:04:29.048Z,2.98
2022-08-11T04:09:36.728Z,2.97
2022-08-11T04:14:45.536Z,2.98
2022-08-11T04:19:52.542Z,2.97
2022-08-11T04:25:02.170Z,2.98
2022-08-11T04:30:09.659Z,3.0
2022-08-11T04:35:16.695Z,3.0
2022-08-11T04:40:24.608Z,3.0
2022-08-11T04:45:31.995Z,3.0
2022-08-11T04:50:40.289Z,3.02
2022-08-11T04:55:49.578Z,3.01
2022-08-11T05:00:57.242Z,3.02
2022-08-11T05:06:04.104Z,3.02
2022-08-11T05:11:11.517Z,3.02
2022-08-11T05:16:19.642Z,3.02
2022-08-11T05:21:28.987Z,3.01
2022-08-11T05:26:37.289Z,3.02
2022-08-11T05:31:44.937Z,3.02
2022-08-11T05:36:52.351Z,3.02
2022-08-11T05:42:07.505Z,3.02
2022-08-11T05:47:15.407Z,3.03
2022-08-11T05:52:22.616Z,3.02
2022-08-11T05:57:30.402Z,3.03
2022-08-11T06:02:38.327Z,3.03
2022-08-11T06:07:47.278Z,3.02
2022-08-11T06:12:54.794Z,3.03
2022-08-11T06:18:01.960Z,3.02
2022-08-11T06:23:09.824Z,3.02
2022-08-11T06:28:18.078Z,3.02
2022-08-11T06:33:25.670Z,3.02
2022-08-11T06:38:33.210Z,3.03
2022-08-11T06:43:41.471Z,3.03
2022-08-11T06:48:48.871Z,3.01
2022-08-11T06:53:56.268Z,3.02
2022-08-11T06:59:03.932Z,3.03
2022-08-11T07:04:12.794Z,3.04
2022-08-11T07:09:20.426Z,3.04
2022-08-11T07:14:29.082Z,3.02
2022-08-11T07:19:37.229Z,3.02
2022-08-11T07:24:46.162Z,3.03
2022-08-11T07:29:54.653Z,3.03
2022-08-11T07:35:01.991Z,3.03
2022-08-11T07:40:09.686Z,3.03
2022-08-11T07:45:18.115Z,3.03
2022-08-11T07:50:26.418Z,3.02
2022-08-11T07:55:34.372Z,3.03
2022-08-11T08:00:41.214Z,3.02
2022-08-11T08:05:49.016Z,3.03
2022-08-11T08:10:55.645Z,3.03
2022-08-11T08:16:04.557Z,3.03
2022-08-11T08:21:11.927Z,3.03
2022-08-11T08:26:19.354Z,3.03
2022-08-11T08:31:26.288Z,3.03
2022-08-11T08:36:33.523Z,3.03
2022-08-11T08:41:41.975Z,3.03
2022-08-11T08:46:49.948Z,3.03
2022-08-11T08:51:58.438Z,3.03
2022-08-11T08:57:06.649Z,3.03
2022-08-11T09:02:15.284Z,3.03
2022-08-11T09:07:23.122Z,3.03
2022-08-11T09:12:34.526Z,3.03
2022-08-11T09:17:42.763Z,3.03
2022-08-11T09:22:49.453Z,3.02
2022-08-11T09:27:56.098Z,3.03
2022-08-11T09:33:03.614Z,3.03
2022-08-11T09:38:11.931Z,3.03
2022-08-11T09:43:19.255Z,3.03
2022-08-11T09:48:25.483Z,3.03
2022-08-11T09:53:32.724Z,3.03
2022-08-11T09:58:39.202Z,3.03
2022-08-11T10:03:47.131Z,3.03
2022-08-11T10:08:55.795Z,3.03
2022-08-11T10:14:02.490Z,3.03
2022-08-11T10:19:10.300Z,3.03
2022-08-11T10:24:18.317Z,3.03
2022-08-11T10:29:25.979Z,3.03
2022-08-11T10:34:31.963Z,3.03
2022-08-11T10:39:38.493Z,3.03
2022-08-11T10:44:45.313Z,3.03
2022-08-11T10:49:54.482Z,3.04
2022-08-11T10:55:01.377Z,3.02
2022-08-11T11:00:08.520Z,3.02
2022-08-11T11:05:17.306Z,3.03
2022-08-11T11:10:24.381Z,3.03
2022-08-11T11:15:32.884Z,3.03
2022-08-11T11:20:39.925Z,3.02
2022-08-11T11:25:47.127Z,3.03
2022-08-11T11:30:54.323Z,3.03
2022-08-11T11:36:01.582Z,3.03
2022-08-11T11:41:08.244Z,3.02
2022-08-11T11:46:16.419Z,3.03
2022-08-11T11:51:23.798Z,3.03
2022-08-11T11:56:32.463Z,3.03
2022-08-11T12:01:38.805Z,3.03
2022-08-11T12:06:46.637Z,3.02
2022-08-11T12:11:53.496Z,3.04
2022-08-11T12:17:02.146Z,3.01
2022-08-11T12:22:10.772Z,3.02
2022-08-11T12:27:19.285Z,3.02
2022-08-11T12:32:27.660Z,3.03
2022-08-11T12:37:35.202Z,3.04
2022-08-11T12:42:42.652Z,3.03
2022-08-11T12:47:51.840Z,3.03
2022-08-11T12:53:01.030Z,3.02
2022-08-11T12:58:08.264Z,3.03
2022-08-11T13:03:17.423Z,3.03
2022-08-11T13:08:25.232Z,3.03
2022-08-11T13:13:32.170Z,3.03
2022-08-11T13:18:37.984Z,3.03
2022-08-11T13:23:44.859Z,3.03
2022-08-11T13:28:52.735Z,3.02
2022-08-11T13:34:01.212Z,3.02
2022-08-11T13:39:08.246Z,3.03
2022-08-11T13:44:17.021Z,3.03
2022-08-11T13:49:23.634Z,3.02
2022-08-11T13:54:30.389Z,3.02
2022-08-11T13:59:37.214Z,3.02
2022-08-11T14:04:44.379Z,3.02
2022-08-11T14:09:53.377Z,3.02
2022-08-11T14:15:01.948Z,3.02
2022-08-11T14:20:11.191Z,3.03
2022-08-11T14:25:18.916Z,3.03
2022-08-11T14:30:27.610Z,3.03
2022-08-11T14:35:35.682Z,3.03
2022-08-11T14:40:42.215Z,3.03
2022-08-11T14:45:50.301Z,3.02
2022-08-11T14:50:56.970Z,3.03
2022-08-11T14:56:04.057Z,3.02
2022-08-11T15:01:11.762Z,3.02
2022-08-11T15:06:19.132Z,3.02
2022-08-11T15:11:28.071Z,3.03
2022-08-11T15:16:35.461Z,3.02
2022-08-11T15:21:43.372Z,3.03
2022-08-11T15:26:50.962Z,3.04
2022-08-11T15:31:57.058Z,3.02
2022-08-11T15:37:04.382Z,3.02
2022-08-11T15:42:12.165Z,3.03
2022-08-11T15:47:19.980Z,3.03
2022-08-11T15:52:33.561Z,3.02
2022-08-11T15:57:41.379Z,3.02
2022-08-11T16:02:49.678Z,3.02
2022-08-11T16:07:57.078Z,3.02
2022-08-11T16:13:05.174Z,3.02
2022-08-11T16:18:13.483Z,3.03
2022-08-11T16:23:20.623Z,3.03
2022-08-11T16:28:28.474Z,3.02
2022-08-11T16:33:36.258Z,3.02
2022-08-11T16:38:43.880Z,3.02
2022-08-11T16:43:50.664Z,3.03
2022-08-11T16:48:58.596Z,3.03
2022-08-11T16:54:05.698Z,3.02
2022-08-11T16:59:12.254Z,3.02
2022-08-11T17:04:20.635Z,3.02
2022-08-11T17:09:27.289Z,3.02
2022-08-11T17:14:34.947Z,3.02
2022-08-11T17:19:43.956Z,3.03
2022-08-11T17:24:52.014Z,3.02
2022-08-11T17:29:58.620Z,3.02
2022-08-11T17:35:05.946Z,3.03
2022-08-11T17:40:14.397Z,3.02
2022-08-11T17:45:22.693Z,3.02
2022-08-11T17:50:29.975Z,3.01
2022-08-11T17:55:37.783Z,3.02
2022-08-11T18:00:45.696Z,3.02
2022-08-11T18:05:52.894Z,3.02
2022-08-11T18:11:00.572Z,3.01
2022-08-11T18:16:07.296Z,3.01
2022-08-11T18:21:15.607Z,3.01
2022-08-11T18:26:22.941Z,3.01
2022-08-11T18:31:30.403Z,3.02
2022-08-11T18:36:44.398Z,3.01
2022-08-11T18:41:56.636Z,3.01
2022-08-11T18:47:03.929Z,3.01
2022-08-11T18:52:17.119Z,3.01
2022-08-11T18:57:24.987Z,3.01
2022-08-11T19:02:33.491Z,3.0
2022-08-11T19:07:42.171Z,3.01
2022-08-11T19:12:49.991Z,3.0
2022-08-11T19:17:57.688Z,3.01
2022-08-11T19:23:06.330Z,3.01
2022-08-11T19:28:13.657Z,3.01
2022-08-11T19:33:21.171Z,3.0
2022-08-11T19:38:29.888Z,3.0
2022-08-11T19:43:37.217Z,3.0
2022-08-11T19:48:45.281Z,3.0
2022-08-11T19:53:52.886Z,3.0
2022-08-11T19:59:00.109Z,3.0
2022-08-11T20:04:07.280Z,3.0
2022-08-11T20:09:14.468Z,3.0
2022-08-11T20:14:22.690Z,3.01
2022-08-11T20:19:29.504Z,3.0
2022-08-11T20:24:36.697Z,3.0
2022-08-11T20:29:45.069Z,3.0
2022-08-11T20:34:53.659Z,3.01
2022-08-11T20:40:01.366Z,3.0
2022-08-11T20:45:09.837Z,3.0
2022-08-11T20:50:17.195Z,3.0
2022-08-11T20:55:24.219Z,3.01
2022-08-11T21:00:31.637Z,3.0
2022-08-11T21:05:38.775Z,2.99
2022-08-11T21:10:46.923Z,3.0
2022-08-11T21:15:55.110Z,2.99
2022-08-11T21:21:01.806Z,3.0
2022-08-11T21:26:10.106Z,3.0
2022-08-11T21:31:18.029Z,3.0
2022-08-11T21:36:25.649Z,2.99
2022-08-11T21:41:32.550Z,3.0
2022-08-11T21:46:40.559Z,3.0
2022-08-11T21:51:48.897Z,2.99
2022-08-11T21:56:57.745Z,2.99
2022-08-11T22:02:04.460Z,3.0
2022-08-11T22:07:11.582Z,3.0
2022-08-11T22:12:20.289Z,3.0
2022-08-11T22:17:28.569Z,3.01
2022-08-11T22:22:36.175Z,2.99
2022-08-11T22:27:45.246Z,2.99
2022-08-11T22:32:52.111Z,2.99
2022-08-11T22:38:00.578Z,3.0
2022-08-11T22:43:08.774Z,2.99
2022-08-11T22:48:16.940Z,3.0
2022-08-11T22:53:24.255Z,2.99
2022-08-11T22:58:32.354Z,3.0
2022-08-11T23:03:39.139Z,2.99
2022-08-11T23:08:47.276Z,3.0
2022-08-11T23:13:54.781Z,3.0
2022-08-11T23:19:02.746Z,2.99
2022-08-11T23:24:10.944Z,2.99
2022-08-11T23:29:19.251Z,3.0
2022-08-11T23:34:27.356Z,2.99
2022-08-11T23:39:34.206Z,2.98
2022-08-11T23:44:41.224Z,2.98
2022-08-11T23:49:50.240Z,2.99
2022-08-11T23:54:56.863Z,2.98
